sensor_id;sensor_type;location;lat;lon;timestamp;temperature;humidity
17851;DHT22;9051;51.548;14.348;2022-07-19T00:01:27;16.70;99.90
17851;DHT22;9051;51.548;14.348;2022-07-19T00:03:59;16.70;99.90
17851;DHT22;9051;51.548;14.348;2022-07-19T00:06:31;16.60;99.90
17851;DHT22;9051;51.548;14.348;2022-07-19T00:09:05;16.60;99.90
17851;DHT22;9051;51.548;14.348;2022-07-19T00:11:37;16.60;99.90
17851;DHT22;9051;51.548;14.348;2022-07-19T00:14:09;16.60;99.90
17851;DHT22;9051;51.548;14.348;2022-07-19T00:16:41;16.50;99.90
17851;DHT22;9051;51.548;14.348;2022-07-19T00:19:13;16.50;99.90
17851;DHT22;9051;51.548;14.348;2022-07-19T00:21:44;16.40;99.90
17851;DHT22;9051;51.548;14.348;2022-07-19T00:24:18;16.50;99.90
17851;DHT22;9051;51.548;14.348;2022-07-19T00:26:50;16.50;99.90
17851;DHT22;9051;51.548;14.348;2022-07-19T00:29:21;16.40;99.90
17851;DHT22;9051;51.548;14.348;2022-07-19T00:31:53;16.50;99.90
17851;DHT22;9051;51.548;14.348;2022-07-19T00:34:25;16.40;99.90
17851;DHT22;9051;51.548;14.348;2022-07-19T00:36:57;16.40;99.90
17851;DHT22;9051;51.548;14.348;2022-07-19T00:39:30;16.40;99.90
17851;DHT22;9051;51.548;14.348;2022-07-19T00:42:02;16.30;99.90
17851;DHT22;9051;51.548;14.348;2022-07-19T00:44:34;16.30;99.90
17851;DHT22;9051;51.548;14.348;2022-07-19T00:47:06;16.30;99.90
17851;DHT22;9051;51.548;14.348;2022-07-19T00:49:39;16.30;99.90
17851;DHT22;9051;51.548;14.348;2022-07-19T00:52:13;16.30;99.90
17851;DHT22;9051;51.548;14.348;2022-07-19T00:54:49;16.30;99.90
17851;DHT22;9051;51.548;14.348;2022-07-19T00:57:23;16.30;99.90
17851;DHT22;9051;51.548;14.348;2022-07-19T00:59:56;16.30;99.90
17851;DHT22;9051;51.548;14.348;2022-07-19T01:02:29;16.30;99.90
17851;DHT22;9051;51.548;14.348;2022-07-19T01:05:03;16.40;99.90
17851;DHT22;9051;51.548;14.348;2022-07-19T01:07:55;16.40;99.90
17851;DHT22;9051;51.548;14.348;2022-07-19T01:10:29;16.30;99.90
17851;DHT22;9051;51.548;14.348;2022-07-19T01:13:01;16.30;99.90
17851;DHT22;9051;51.548;14.348;2022-07-19T01:15:33;16.20;99.90
17851;DHT22;9051;51.548;14.348;2022-07-19T01:18:05;16.10;99.90
17851;DHT22;9051;51.548;14.348;2022-07-19T01:20:37;16.10;99.90
17851;DHT22;9051;51.548;14.348;2022-07-19T01:23:10;16.00;99.90
17851;DHT22;9051;51.548;14.348;2022-07-19T01:25:42;16.00;99.90
17851;DHT22;9051;51.548;14.348;2022-07-19T01:28:14;15.90;99.90
17851;DHT22;9051;51.548;14.348;2022-07-19T01:30:46;15.90;99.90
17851;DHT22;9051;51.548;14.348;2022-07-19T01:33:18;15.80;99.90
17851;DHT22;9051;51.548;14.348;2022-07-19T01:35:49;15.80;99.90
17851;DHT22;9051;51.548;14.348;2022-07-19T01:38:23;15.80;99.90
17851;DHT22;9051;51.548;14.348;2022-07-19T01:40:56;15.80;99.90
17851;DHT22;9051;51.548;14.348;2022-07-19T01:43:29;15.80;99.90
17851;DHT22;9051;51.548;14.348;2022-07-19T01:46:01;15.80;99.90
17851;DHT22;9051;51.548;14.348;2022-07-19T01:48:34;15.70;99.90
17851;DHT22;9051;51.548;14.348;2022-07-19T01:51:06;15.70;99.90
17851;DHT22;9051;51.548;14.348;2022-07-19T01:53:40;15.60;99.90
17851;DHT22;9051;51.548;14.348;2022-07-19T01:56:11;15.60;99.90
17851;DHT22;9051;51.548;14.348;2022-07-19T01:58:43;15.70;99.90
17851;DHT22;9051;51.548;14.348;2022-07-19T02:01:15;15.60;99.90
17851;DHT22;9051;51.548;14.348;2022-07-19T02:03:47;15.50;99.90
17851;DHT22;9051;51.548;14.348;2022-07-19T02:06:19;15.50;99.90
17851;DHT22;9051;51.548;14.348;2022-07-19T02:08:53;15.50;99.90
17851;DHT22;9051;51.548;14.348;2022-07-19T02:11:25;15.50;99.90
17851;DHT22;9051;51.548;14.348;2022-07-19T02:14:09;15.40;99.90
17851;DHT22;9051;51.548;14.348;2022-07-19T02:16:41;15.40;99.90
17851;DHT22;9051;51.548;14.348;2022-07-19T02:19:14;15.20;99.90
17851;DHT22;9051;51.548;14.348;2022-07-19T02:21:46;15.20;99.90
17851;DHT22;9051;51.548;14.348;2022-07-19T02:24:19;15.20;99.90
17851;DHT22;9051;51.548;14.348;2022-07-19T02:26:51;15.10;99.90
17851;DHT22;9051;51.548;14.348;2022-07-19T02:29:22;15.10;99.90
17851;DHT22;9051;51.548;14.348;2022-07-19T02:31:55;15.10;99.90
17851;DHT22;9051;51.548;14.348;2022-07-19T02:34:27;15.10;99.90
17851;DHT22;9051;51.548;14.348;2022-07-19T02:36:59;15.10;99.90
17851;DHT22;9051;51.548;14.348;2022-07-19T02:39:32;15.10;99.90
17851;DHT22;9051;51.548;14.348;2022-07-19T02:42:04;15.10;99.90
17851;DHT22;9051;51.548;14.348;2022-07-19T02:44:35;15.10;99.90
17851;DHT22;9051;51.548;14.348;2022-07-19T02:47:07;15.10;99.90
17851;DHT22;9051;51.548;14.348;2022-07-19T02:49:39;15.10;99.90
17851;DHT22;9051;51.548;14.348;2022-07-19T02:52:11;15.10;99.90
17851;DHT22;9051;51.548;14.348;2022-07-19T02:54:44;15.10;99.90
17851;DHT22;9051;51.548;14.348;2022-07-19T02:57:16;15.10;99.90
17851;DHT22;9051;51.548;14.348;2022-07-19T02:59:48;15.00;99.90
17851;DHT22;9051;51.548;14.348;2022-07-19T03:02:20;15.00;99.90
17851;DHT22;9051;51.548;14.348;2022-07-19T03:04:52;15.00;99.90
17851;DHT22;9051;51.548;14.348;2022-07-19T03:07:23;15.00;99.90
17851;DHT22;9051;51.548;14.348;2022-07-19T03:09:57;15.00;99.90
17851;DHT22;9051;51.548;14.348;2022-07-19T03:12:29;14.90;99.90
17851;DHT22;9051;51.548;14.348;2022-07-19T03:15:01;14.90;99.90
17851;DHT22;9051;51.548;14.348;2022-07-19T03:17:33;14.80;99.90
17851;DHT22;9051;51.548;14.348;2022-07-19T03:20:06;14.80;99.90
17851;DHT22;9051;51.548;14.348;2022-07-19T03:22:38;14.90;99.90
17851;DHT22;9051;51.548;14.348;2022-07-19T03:25:11;14.90;99.90
17851;DHT22;9051;51.548;14.348;2022-07-19T03:27:43;15.00;99.90
17851;DHT22;9051;51.548;14.348;2022-07-19T03:30:15;15.00;99.90
17851;DHT22;9051;51.548;14.348;2022-07-19T03:32:47;15.00;99.90
17851;DHT22;9051;51.548;14.348;2022-07-19T03:35:19;14.90;99.90
17851;DHT22;9051;51.548;14.348;2022-07-19T03:37:51;14.90;99.90
17851;DHT22;9051;51.548;14.348;2022-07-19T03:40:24;14.90;99.90
17851;DHT22;9051;51.548;14.348;2022-07-19T03:42:56;14.90;99.90
17851;DHT22;9051;51.548;14.348;2022-07-19T03:45:28;14.90;99.90
17851;DHT22;9051;51.548;14.348;2022-07-19T03:48:00;14.90;99.90
17851;DHT22;9051;51.548;14.348;2022-07-19T03:50:32;14.90;99.90
17851;DHT22;9051;51.548;14.348;2022-07-19T03:53:04;14.90;99.90
17851;DHT22;9051;51.548;14.348;2022-07-19T03:55:37;14.90;99.90
17851;DHT22;9051;51.548;14.348;2022-07-19T03:58:09;14.90;99.90
17851;DHT22;9051;51.548;14.348;2022-07-19T04:00:41;14.90;99.90
17851;DHT22;9051;51.548;14.348;2022-07-19T04:03:16;15.00;99.90
17851;DHT22;9051;51.548;14.348;2022-07-19T04:05:48;15.10;99.90
17851;DHT22;9051;51.548;14.348;2022-07-19T04:08:19;15.10;99.90
17851;DHT22;9051;51.548;14.348;2022-07-19T04:10:53;15.20;99.90
17851;DHT22;9051;51.548;14.348;2022-07-19T04:13:25;15.30;99.90
17851;DHT22;9051;51.548;14.348;2022-07-19T04:15:57;15.30;99.90
17851;DHT22;9051;51.548;14.348;2022-07-19T04:18:29;15.30;99.90
17851;DHT22;9051;51.548;14.348;2022-07-19T04:21:00;15.40;99.90
17851;DHT22;9051;51.548;14.348;2022-07-19T04:23:32;15.40;99.90
17851;DHT22;9051;51.548;14.348;2022-07-19T04:26:06;15.40;99.90
17851;DHT22;9051;51.548;14.348;2022-07-19T04:28:38;15.50;99.90
17851;DHT22;9051;51.548;14.348;2022-07-19T04:31:09;15.60;99.90
17851;DHT22;9051;51.548;14.348;2022-07-19T04:33:41;15.70;99.90
17851;DHT22;9051;51.548;14.348;2022-07-19T04:36:13;15.70;99.90
17851;DHT22;9051;51.548;14.348;2022-07-19T04:38:45;15.80;99.90
17851;DHT22;9051;51.548;14.348;2022-07-19T04:41:18;15.90;99.90
17851;DHT22;9051;51.548;14.348;2022-07-19T04:43:50;16.00;99.90
17851;DHT22;9051;51.548;14.348;2022-07-19T04:46:22;16.00;99.90
17851;DHT22;9051;51.548;14.348;2022-07-19T04:48:54;16.10;99.90
17851;DHT22;9051;51.548;14.348;2022-07-19T04:51:26;16.10;99.90
17851;DHT22;9051;51.548;14.348;2022-07-19T04:53:57;16.20;99.90
17851;DHT22;9051;51.548;14.348;2022-07-19T04:56:31;16.30;99.90
17851;DHT22;9051;51.548;14.348;2022-07-19T04:59:02;16.40;99.90
17851;DHT22;9051;51.548;14.348;2022-07-19T05:01:34;16.50;99.90
17851;DHT22;9051;51.548;14.348;2022-07-19T05:04:06;16.60;99.90
17851;DHT22;9051;51.548;14.348;2022-07-19T05:06:38;16.70;99.90
17851;DHT22;9051;51.548;14.348;2022-07-19T05:09:10;16.70;99.90
17851;DHT22;9051;51.548;14.348;2022-07-19T05:11:44;16.80;99.90
17851;DHT22;9051;51.548;14.348;2022-07-19T05:14:15;16.90;99.90
17851;DHT22;9051;51.548;14.348;2022-07-19T05:16:48;17.00;99.90
17851;DHT22;9051;51.548;14.348;2022-07-19T05:19:20;17.10;99.90
17851;DHT22;9051;51.548;14.348;2022-07-19T05:21:52;17.20;99.90
17851;DHT22;9051;51.548;14.348;2022-07-19T05:24:23;17.30;99.90
17851;DHT22;9051;51.548;14.348;2022-07-19T05:26:57;17.50;99.90
17851;DHT22;9051;51.548;14.348;2022-07-19T05:29:29;17.60;99.90
17851;DHT22;9051;51.548;14.348;2022-07-19T05:32:00;17.80;99.90
17851;DHT22;9051;51.548;14.348;2022-07-19T05:34:33;17.90;99.90
17851;DHT22;9051;51.548;14.348;2022-07-19T05:37:05;18.00;99.90
17851;DHT22;9051;51.548;14.348;2022-07-19T05:39:37;18.10;99.90
17851;DHT22;9051;51.548;14.348;2022-07-19T05:42:10;18.30;99.90
17851;DHT22;9051;51.548;14.348;2022-07-19T05:44:42;18.40;99.90
17851;DHT22;9051;51.548;14.348;2022-07-19T05:47:14;18.50;99.90
17851;DHT22;9051;51.548;14.348;2022-07-19T05:49:46;18.60;99.90
17851;DHT22;9051;51.548;14.348;2022-07-19T05:52:18;18.70;99.90
17851;DHT22;9051;51.548;14.348;2022-07-19T05:54:50;18.90;99.90
17851;DHT22;9051;51.548;14.348;2022-07-19T05:57:23;19.10;99.90
17851;DHT22;9051;51.548;14.348;2022-07-19T05:59:55;19.20;99.90
17851;DHT22;9051;51.548;14.348;2022-07-19T06:02:26;19.40;99.90
17851;DHT22;9051;51.548;14.348;2022-07-19T06:04:58;19.50;99.90
17851;DHT22;9051;51.548;14.348;2022-07-19T06:07:30;19.70;99.90
17851;DHT22;9051;51.548;14.348;2022-07-19T06:10:03;19.70;99.90
17851;DHT22;9051;51.548;14.348;2022-07-19T06:12:36;19.80;99.90
17851;DHT22;9051;51.548;14.348;2022-07-19T06:15:09;19.90;99.90
17851;DHT22;9051;51.548;14.348;2022-07-19T06:17:41;20.00;99.90
17851;DHT22;9051;51.548;14.348;2022-07-19T06:20:13;20.10;99.90
17851;DHT22;9051;51.548;14.348;2022-07-19T06:22:45;20.30;99.90
17851;DHT22;9051;51.548;14.348;2022-07-19T06:25:17;20.40;99.90
17851;DHT22;9051;51.548;14.348;2022-07-19T06:27:50;20.40;99.90
17851;DHT22;9051;51.548;14.348;2022-07-19T06:30:22;20.60;99.90
17851;DHT22;9051;51.548;14.348;2022-07-19T06:32:53;20.70;99.90
17851;DHT22;9051;51.548;14.348;2022-07-19T06:35:25;20.90;99.90
17851;DHT22;9051;51.548;14.348;2022-07-19T06:37:57;21.00;99.90
17851;DHT22;9051;51.548;14.348;2022-07-19T06:40:29;21.10;99.90
17851;DHT22;9051;51.548;14.348;2022-07-19T06:43:02;21.30;99.90
17851;DHT22;9051;51.548;14.348;2022-07-19T06:45:34;21.40;99.90
17851;DHT22;9051;51.548;14.348;2022-07-19T06:48:07;21.60;99.90
17851;DHT22;9051;51.548;14.348;2022-07-19T06:50:38;21.70;99.90
17851;DHT22;9051;51.548;14.348;2022-07-19T06:53:10;21.90;99.90
17851;DHT22;9051;51.548;14.348;2022-07-19T06:55:42;22.10;99.90
17851;DHT22;9051;51.548;14.348;2022-07-19T06:58:15;22.30;99.90
17851;DHT22;9051;51.548;14.348;2022-07-19T07:00:47;22.50;99.90
17851;DHT22;9051;51.548;14.348;2022-07-19T07:03:22;22.60;99.90
17851;DHT22;9051;51.548;14.348;2022-07-19T07:05:54;22.90;99.90
17851;DHT22;9051;51.548;14.348;2022-07-19T07:08:26;23.20;99.90
17851;DHT22;9051;51.548;14.348;2022-07-19T07:10:57;23.30;99.90
17851;DHT22;9051;51.548;14.348;2022-07-19T07:13:31;23.50;99.90
17851;DHT22;9051;51.548;14.348;2022-07-19T07:16:03;23.90;99.90
17851;DHT22;9051;51.548;14.348;2022-07-19T07:18:35;24.20;99.90
17851;DHT22;9051;51.548;14.348;2022-07-19T07:21:07;24.40;99.90
17851;DHT22;9051;51.548;14.348;2022-07-19T07:23:39;24.50;99.90
17851;DHT22;9051;51.548;14.348;2022-07-19T07:26:11;24.70;99.90
17851;DHT22;9051;51.548;14.348;2022-07-19T07:28:44;24.90;99.90
17851;DHT22;9051;51.548;14.348;2022-07-19T07:31:16;25.10;99.90
17851;DHT22;9051;51.548;14.348;2022-07-19T07:33:48;25.30;99.90
17851;DHT22;9051;51.548;14.348;2022-07-19T07:36:20;25.40;99.90
17851;DHT22;9051;51.548;14.348;2022-07-19T07:38:52;25.40;99.90
17851;DHT22;9051;51.548;14.348;2022-07-19T07:41:23;25.40;99.90
17851;DHT22;9051;51.548;14.348;2022-07-19T07:43:57;25.50;99.90
17851;DHT22;9051;51.548;14.348;2022-07-19T07:46:29;25.60;99.90
17851;DHT22;9051;51.548;14.348;2022-07-19T07:49:00;25.90;99.90
17851;DHT22;9051;51.548;14.348;2022-07-19T07:51:32;26.10;99.90
17851;DHT22;9051;51.548;14.348;2022-07-19T07:54:04;26.30;99.90
17851;DHT22;9051;51.548;14.348;2022-07-19T07:56:36;26.40;99.90
17851;DHT22;9051;51.548;14.348;2022-07-19T07:59:09;26.60;99.90
17851;DHT22;9051;51.548;14.348;2022-07-19T08:01:41;26.80;99.90
17851;DHT22;9051;51.548;14.348;2022-07-19T08:04:13;26.90;99.90
17851;DHT22;9051;51.548;14.348;2022-07-19T08:06:45;27.10;99.90
17851;DHT22;9051;51.548;14.348;2022-07-19T08:09:17;27.10;99.90
17851;DHT22;9051;51.548;14.348;2022-07-19T08:11:49;27.10;99.90
17851;DHT22;9051;51.548;14.348;2022-07-19T08:14:22;27.10;99.90
17851;DHT22;9051;51.548;14.348;2022-07-19T08:16:54;27.10;99.90
17851;DHT22;9051;51.548;14.348;2022-07-19T08:19:26;27.10;99.90
17851;DHT22;9051;51.548;14.348;2022-07-19T08:21:58;27.20;99.90
17851;DHT22;9051;51.548;14.348;2022-07-19T08:24:30;27.30;99.90
17851;DHT22;9051;51.548;14.348;2022-07-19T08:27:02;27.40;99.90
17851;DHT22;9051;51.548;14.348;2022-07-19T08:29:36;27.40;99.90
17851;DHT22;9051;51.548;14.348;2022-07-19T08:32:08;27.50;99.90
17851;DHT22;9051;51.548;14.348;2022-07-19T08:34:40;27.60;99.90
17851;DHT22;9051;51.548;14.348;2022-07-19T08:37:12;27.70;99.90
17851;DHT22;9051;51.548;14.348;2022-07-19T08:39:44;27.90;99.90
17851;DHT22;9051;51.548;14.348;2022-07-19T08:42:18;28.20;99.90
17851;DHT22;9051;51.548;14.348;2022-07-19T08:44:53;28.30;99.90
17851;DHT22;9051;51.548;14.348;2022-07-19T08:47:27;28.40;99.90
17851;DHT22;9051;51.548;14.348;2022-07-19T08:50:00;28.50;99.90
17851;DHT22;9051;51.548;14.348;2022-07-19T08:52:33;28.60;99.90
17851;DHT22;9051;51.548;14.348;2022-07-19T08:55:05;28.60;99.90
17851;DHT22;9051;51.548;14.348;2022-07-19T08:57:38;28.70;99.90
17851;DHT22;9051;51.548;14.348;2022-07-19T09:00:30;28.80;99.90
17851;DHT22;9051;51.548;14.348;2022-07-19T09:03:04;28.90;99.90
17851;DHT22;9051;51.548;14.348;2022-07-19T09:05:37;29.10;99.90
17851;DHT22;9051;51.548;14.348;2022-07-19T09:08:10;29.30;99.90
17851;DHT22;9051;51.548;14.348;2022-07-19T09:10:44;29.40;99.90
17851;DHT22;9051;51.548;14.348;2022-07-19T09:13:37;29.50;99.90
17851;DHT22;9051;51.548;14.348;2022-07-19T09:16:11;29.50;99.90
17851;DHT22;9051;51.548;14.348;2022-07-19T09:18:43;29.60;99.90
17851;DHT22;9051;51.548;14.348;2022-07-19T09:21:15;29.60;99.90
17851;DHT22;9051;51.548;14.348;2022-07-19T09:23:47;29.60;99.90
17851;DHT22;9051;51.548;14.348;2022-07-19T09:26:21;29.70;99.90
17851;DHT22;9051;51.548;14.348;2022-07-19T09:28:53;29.90;99.90
17851;DHT22;9051;51.548;14.348;2022-07-19T09:31:26;30.10;99.90
17851;DHT22;9051;51.548;14.348;2022-07-19T09:33:58;30.10;99.90
17851;DHT22;9051;51.548;14.348;2022-07-19T09:36:31;30.20;99.90
17851;DHT22;9051;51.548;14.348;2022-07-19T09:39:03;30.30;99.90
17851;DHT22;9051;51.548;14.348;2022-07-19T09:41:35;30.30;99.90
17851;DHT22;9051;51.548;14.348;2022-07-19T09:44:06;30.30;99.90
17851;DHT22;9051;51.548;14.348;2022-07-19T09:46:42;30.30;99.90
17851;DHT22;9051;51.548;14.348;2022-07-19T09:49:17;30.40;99.90
17851;DHT22;9051;51.548;14.348;2022-07-19T09:51:50;30.50;99.90
17851;DHT22;9051;51.548;14.348;2022-07-19T09:54:23;30.70;99.90
17851;DHT22;9051;51.548;14.348;2022-07-19T09:56:56;30.80;99.90
17851;DHT22;9051;51.548;14.348;2022-07-19T09:59:28;30.80;99.90
17851;DHT22;9051;51.548;14.348;2022-07-19T10:02:02;30.90;99.90
17851;DHT22;9051;51.548;14.348;2022-07-19T10:04:35;30.80;99.90
17851;DHT22;9051;51.548;14.348;2022-07-19T10:07:07;31.00;99.90
17851;DHT22;9051;51.548;14.348;2022-07-19T10:09:39;31.00;99.90
17851;DHT22;9051;51.548;14.348;2022-07-19T10:12:12;30.90;99.90
17851;DHT22;9051;51.548;14.348;2022-07-19T10:14:44;31.00;99.90
17851;DHT22;9051;51.548;14.348;2022-07-19T10:17:25;31.00;99.90
17851;DHT22;9051;51.548;14.348;2022-07-19T10:19:58;31.10;99.90
17851;DHT22;9051;51.548;14.348;2022-07-19T10:22:31;31.20;99.90
17851;DHT22;9051;51.548;14.348;2022-07-19T10:25:11;31.20;99.90
17851;DHT22;9051;51.548;14.348;2022-07-19T10:27:45;31.30;99.90
17851;DHT22;9051;51.548;14.348;2022-07-19T10:30:23;31.30;99.90
17851;DHT22;9051;51.548;14.348;2022-07-19T10:32:57;31.40;99.90
17851;DHT22;9051;51.548;14.348;2022-07-19T10:35:30;31.40;99.90
17851;DHT22;9051;51.548;14.348;2022-07-19T10:38:10;31.50;99.90
17851;DHT22;9051;51.548;14.348;2022-07-19T10:40:45;31.50;99.90
17851;DHT22;9051;51.548;14.348;2022-07-19T10:43:18;31.50;99.90
17851;DHT22;9051;51.548;14.348;2022-07-19T10:46:09;31.60;99.90
17851;DHT22;9051;51.548;14.348;2022-07-19T10:48:49;31.60;99.90
17851;DHT22;9051;51.548;14.348;2022-07-19T10:51:27;31.70;99.90
17851;DHT22;9051;51.548;14.348;2022-07-19T10:54:04;31.70;99.80
17851;DHT22;9051;51.548;14.348;2022-07-19T10:56:42;31.80;99.90
17851;DHT22;9051;51.548;14.348;2022-07-19T10:59:14;31.80;99.70
17851;DHT22;9051;51.548;14.348;2022-07-19T11:01:54;31.80;99.90
17851;DHT22;9051;51.548;14.348;2022-07-19T11:04:33;31.80;99.30
17851;DHT22;9051;51.548;14.348;2022-07-19T11:07:13;31.90;99.40
17851;DHT22;9051;51.548;14.348;2022-07-19T11:09:49;31.90;99.20
17851;DHT22;9051;51.548;14.348;2022-07-19T11:12:23;32.10;99.90
17851;DHT22;9051;51.548;14.348;2022-07-19T11:14:56;32.10;99.50
17851;DHT22;9051;51.548;14.348;2022-07-19T11:17:29;32.20;99.30
17851;DHT22;9051;51.548;14.348;2022-07-19T11:20:06;32.20;98.70
17851;DHT22;9051;51.548;14.348;2022-07-19T11:22:40;32.20;99.10
17851;DHT22;9051;51.548;14.348;2022-07-19T11:25:14;32.20;98.40
17851;DHT22;9051;51.548;14.348;2022-07-19T11:27:46;32.20;99.30
17851;DHT22;9051;51.548;14.348;2022-07-19T11:30:21;32.30;98.00
17851;DHT22;9051;51.548;14.348;2022-07-19T11:32:56;32.30;97.90
17851;DHT22;9051;51.548;14.348;2022-07-19T11:35:30;32.30;98.00
17851;DHT22;9051;51.548;14.348;2022-07-19T11:38:02;32.40;98.50
17851;DHT22;9051;51.548;14.348;2022-07-19T11:40:35;32.50;98.90
17851;DHT22;9051;51.548;14.348;2022-07-19T11:43:08;32.60;98.10
17851;DHT22;9051;51.548;14.348;2022-07-19T11:45:42;32.80;98.50
17851;DHT22;9051;51.548;14.348;2022-07-19T11:48:26;32.80;97.40
17851;DHT22;9051;51.548;14.348;2022-07-19T11:51:02;32.80;96.60
17851;DHT22;9051;51.548;14.348;2022-07-19T11:53:36;32.90;97.70
17851;DHT22;9051;51.548;14.348;2022-07-19T11:56:17;33.00;97.80
17851;DHT22;9051;51.548;14.348;2022-07-19T11:58:50;33.10;97.20
17851;DHT22;9051;51.548;14.348;2022-07-19T12:01:26;33.20;97.00
17851;DHT22;9051;51.548;14.348;2022-07-19T12:04:00;33.20;97.00
17851;DHT22;9051;51.548;14.348;2022-07-19T12:06:36;33.30;96.60
17851;DHT22;9051;51.548;14.348;2022-07-19T12:09:10;33.40;97.00
17851;DHT22;9051;51.548;14.348;2022-07-19T12:11:45;33.40;96.60
17851;DHT22;9051;51.548;14.348;2022-07-19T12:14:20;33.50;97.60
17851;DHT22;9051;51.548;14.348;2022-07-19T12:17:11;33.60;96.80
17851;DHT22;9051;51.548;14.348;2022-07-19T12:19:44;33.60;96.30
17851;DHT22;9051;51.548;14.348;2022-07-19T12:22:33;33.70;96.10
17851;DHT22;9051;51.548;14.348;2022-07-19T12:25:07;33.80;96.00
17851;DHT22;9051;51.548;14.348;2022-07-19T12:27:39;33.90;96.50
17851;DHT22;9051;51.548;14.348;2022-07-19T12:30:18;34.00;96.70
17851;DHT22;9051;51.548;14.348;2022-07-19T12:32:50;34.10;96.70
17851;DHT22;9051;51.548;14.348;2022-07-19T12:35:22;34.20;97.40
17851;DHT22;9051;51.548;14.348;2022-07-19T12:38:03;34.20;97.40
17851;DHT22;9051;51.548;14.348;2022-07-19T12:40:36;34.30;97.20
17851;DHT22;9051;51.548;14.348;2022-07-19T12:43:09;34.60;96.90
17851;DHT22;9051;51.548;14.348;2022-07-19T12:45:44;34.60;95.90
17851;DHT22;9051;51.548;14.348;2022-07-19T12:48:17;34.50;94.70
17851;DHT22;9051;51.548;14.348;2022-07-19T12:50:49;34.40;94.60
17851;DHT22;9051;51.548;14.348;2022-07-19T12:53:24;34.40;95.20
17851;DHT22;9051;51.548;14.348;2022-07-19T12:55:57;34.30;95.20
17851;DHT22;9051;51.548;14.348;2022-07-19T12:58:29;34.30;94.20
17851;DHT22;9051;51.548;14.348;2022-07-19T13:01:18;34.30;93.90
17851;DHT22;9051;51.548;14.348;2022-07-19T13:03:50;34.40;94.70
17851;DHT22;9051;51.548;14.348;2022-07-19T13:06:23;34.40;94.50
17851;DHT22;9051;51.548;14.348;2022-07-19T13:08:57;34.50;93.90
17851;DHT22;9051;51.548;14.348;2022-07-19T13:11:30;34.40;93.90
17851;DHT22;9051;51.548;14.348;2022-07-19T13:14:03;34.40;94.10
17851;DHT22;9051;51.548;14.348;2022-07-19T13:16:37;34.40;94.80
17851;DHT22;9051;51.548;14.348;2022-07-19T13:19:10;34.30;93.60
17851;DHT22;9051;51.548;14.348;2022-07-19T13:21:43;34.40;94.50
17851;DHT22;9051;51.548;14.348;2022-07-19T13:24:18;34.50;93.60
17851;DHT22;9051;51.548;14.348;2022-07-19T13:26:50;34.60;94.10
17851;DHT22;9051;51.548;14.348;2022-07-19T13:29:22;34.80;93.80
17851;DHT22;9051;51.548;14.348;2022-07-19T13:31:54;34.90;94.60
17851;DHT22;9051;51.548;14.348;2022-07-19T13:34:27;35.00;94.50
17851;DHT22;9051;51.548;14.348;2022-07-19T13:36:59;35.00;93.50
17851;DHT22;9051;51.548;14.348;2022-07-19T13:39:34;35.00;93.50
17851;DHT22;9051;51.548;14.348;2022-07-19T13:42:07;35.10;93.10
17851;DHT22;9051;51.548;14.348;2022-07-19T13:44:39;35.20;92.90
17851;DHT22;9051;51.548;14.348;2022-07-19T13:47:11;35.30;92.80
17851;DHT22;9051;51.548;14.348;2022-07-19T13:49:44;35.30;93.00
17851;DHT22;9051;51.548;14.348;2022-07-19T13:52:18;35.30;92.40
17851;DHT22;9051;51.548;14.348;2022-07-19T13:54:51;35.20;92.80
17851;DHT22;9051;51.548;14.348;2022-07-19T13:57:23;35.20;92.40
17851;DHT22;9051;51.548;14.348;2022-07-19T13:59:56;35.00;91.90
17851;DHT22;9051;51.548;14.348;2022-07-19T14:02:28;35.00;91.80
17851;DHT22;9051;51.548;14.348;2022-07-19T14:05:00;34.80;91.60
17851;DHT22;9051;51.548;14.348;2022-07-19T14:07:33;34.80;93.00
17851;DHT22;9051;51.548;14.348;2022-07-19T14:10:08;35.00;92.20
17851;DHT22;9051;51.548;14.348;2022-07-19T14:12:40;35.10;92.60
17851;DHT22;9051;51.548;14.348;2022-07-19T14:15:12;35.20;93.10
17851;DHT22;9051;51.548;14.348;2022-07-19T14:17:47;35.30;92.70
17851;DHT22;9051;51.548;14.348;2022-07-19T14:20:19;35.50;92.50
17851;DHT22;9051;51.548;14.348;2022-07-19T14:22:52;35.40;91.30
17851;DHT22;9051;51.548;14.348;2022-07-19T14:25:26;35.30;91.60
17851;DHT22;9051;51.548;14.348;2022-07-19T14:27:59;35.10;91.40
17851;DHT22;9051;51.548;14.348;2022-07-19T14:30:33;35.20;91.70
17851;DHT22;9051;51.548;14.348;2022-07-19T14:33:06;35.30;93.00
17851;DHT22;9051;51.548;14.348;2022-07-19T14:35:38;35.40;92.40
17851;DHT22;9051;51.548;14.348;2022-07-19T14:38:11;35.50;93.10
17851;DHT22;9051;51.548;14.348;2022-07-19T14:40:45;35.70;92.80
17851;DHT22;9051;51.548;14.348;2022-07-19T14:43:17;35.80;92.30
17851;DHT22;9051;51.548;14.348;2022-07-19T14:45:50;35.90;93.00
17851;DHT22;9051;51.548;14.348;2022-07-19T14:48:23;36.10;94.00
17851;DHT22;9051;51.548;14.348;2022-07-19T14:50:56;36.10;90.70
17851;DHT22;9051;51.548;14.348;2022-07-19T14:53:29;35.70;90.50
17851;DHT22;9051;51.548;14.348;2022-07-19T14:56:02;35.60;91.00
17851;DHT22;9051;51.548;14.348;2022-07-19T14:58:35;35.60;91.90
17851;DHT22;9051;51.548;14.348;2022-07-19T15:01:08;35.80;92.10
17851;DHT22;9051;51.548;14.348;2022-07-19T15:03:40;35.90;90.60
17851;DHT22;9051;51.548;14.348;2022-07-19T15:06:14;35.80;91.30
17851;DHT22;9051;51.548;14.348;2022-07-19T15:08:47;35.70;90.90
17851;DHT22;9051;51.548;14.348;2022-07-19T15:11:21;35.80;90.90
17851;DHT22;9051;51.548;14.348;2022-07-19T15:13:53;35.90;90.90
17851;DHT22;9051;51.548;14.348;2022-07-19T15:16:25;35.90;89.80
17851;DHT22;9051;51.548;14.348;2022-07-19T15:18:57;36.10;91.20
17851;DHT22;9051;51.548;14.348;2022-07-19T15:21:29;35.90;92.20
17851;DHT22;9051;51.548;14.348;2022-07-19T15:24:05;36.10;92.80
17851;DHT22;9051;51.548;14.348;2022-07-19T15:26:40;36.10;91.50
17851;DHT22;9051;51.548;14.348;2022-07-19T15:29:12;36.10;91.50
17851;DHT22;9051;51.548;14.348;2022-07-19T15:31:47;36.40;92.50
17851;DHT22;9051;51.548;14.348;2022-07-19T15:34:18;36.40;90.20
17851;DHT22;9051;51.548;14.348;2022-07-19T15:36:50;36.10;91.30
17851;DHT22;9051;51.548;14.348;2022-07-19T15:39:23;36.10;91.70
17851;DHT22;9051;51.548;14.348;2022-07-19T15:41:57;36.20;92.30
17851;DHT22;9051;51.548;14.348;2022-07-19T15:44:30;36.30;90.00
17851;DHT22;9051;51.548;14.348;2022-07-19T15:47:02;36.10;91.00
17851;DHT22;9051;51.548;14.348;2022-07-19T15:49:34;36.20;90.80
17851;DHT22;9051;51.548;14.348;2022-07-19T15:52:09;36.20;90.50
17851;DHT22;9051;51.548;14.348;2022-07-19T15:54:42;36.20;90.10
17851;DHT22;9051;51.548;14.348;2022-07-19T15:57:16;36.20;91.60
17851;DHT22;9051;51.548;14.348;2022-07-19T15:59:48;36.20;91.50
17851;DHT22;9051;51.548;14.348;2022-07-19T16:02:21;36.20;90.20
17851;DHT22;9051;51.548;14.348;2022-07-19T16:04:54;36.20;91.80
17851;DHT22;9051;51.548;14.348;2022-07-19T16:07:26;36.30;90.60